Stokesdale, North Carolina
Current Conditions -  °F | °C
As of 1:54 AM on Thursday 23 Oct 2014 (Local Time) from KGSO Reporting Station
Clear Clear  
Wind Chill: 44°   Ceiling: Unl
Heat Index: 44°   Visibility: 10mi
Dew Point: 39°   Wind: 3mph
Humidity: 82%   Direction: 260°W
Pressure: 30.04"   Gusts: NA
Location:  36.24°N, 79.98°W
Report Text: KGSO 230554Z 26003KT 10SM CLR 07/04 A3004 RMK AO2 SLP169 T00670039 10117 20061 58006
Loading
Personal Weather Stations






























Interactive Weather Map
Tropical Storm Tracking
New forecast layout! Learn more

10-Day Weather Forecast

Advertisements
Track Severe Weather on mobile